• Join FlightAware (Why Join?)
  • Login
  • US Flag 
12:35AM EDT


 

Airport Tracker/Info


-or-


 

Live Flight TrackerFlight Track Log ✈ XOJ793 ✈ 29-Jul-2014 ✈ KLRD - KEGE

Flight Track Log - Related Links

Times and Time Zones

All times are in EDT time to prevent confusion due to time zone crossing. See the XOJ793 flight status page for this flight to view local times or setup timezone preferences in your user account.

Time Position Orientation Groundspeed Altitude Reporting Facility
EDT Latitude Longitude Course Direction KTS MPH feet Rate Location/Type
10:24AM 27.5203 -99.4631 326° Northwest 213 245 1,800  Level Houston Center
10:25AM 28.1716 -99.9092 328° Northwest  Level FlightAware Approximate
10:25AM 27.5303 -99.4103 78° East 248 285 5,400  Level Houston Center
10:26AM 28.2786 -99.9849 328° Northwest  Level FlightAware Approximate
10:26AM 27.6122 -99.4406 342° North 273 314 10,200  Level Houston Center
10:27AM 28.3885 -100.0553 331° Northwest  Level FlightAware Approximate
10:27AM 27.6803 -99.4917 326° Northwest 290 334 14,100  Level Houston Center
10:28AM 28.4946 -100.1324 325° Northwest  Level FlightAware Approximate
10:28AM 27.7606 -99.5514 327° Northwest 349 402 16,300  Level Houston Center
10:29AM 28.5991 -100.2122 326° Northwest  Level FlightAware Approximate
10:29AM 27.8475 -99.6172 326° Northwest 369 425 18,100  Level Houston Center
10:30AM 27.9386 -99.6850 327° Northwest 390 449 19,600 1,440 Climbing Houston Center
10:31AM 28.0308 -99.7556 326° Northwest 401 461 21,100 1,500 Climbing Houston Center
10:32AM 28.1428 -99.8419 326° Northwest 403 464 22,700 1,440 Climbing Houston Center
10:33AM 28.2397 -99.9133 327° Northwest 411 473 24,200 1,440 Climbing Houston Center
10:34AM 28.3375 -99.9883 326° Northwest 422 486 25,700 1,200 Climbing Houston Center
10:35AM 28.4378 -100.0636 327° Northwest 428 493 26,800 1,140 Climbing Houston Center
10:36AM 28.5394 -100.1400 327° Northwest 435 501 28,100 1,200 Climbing Houston Center
10:37AM 28.6528 -100.2272 326° Northwest 444 511 29,400 1,260 Climbing Houston Center
10:38AM 28.7575 -100.3069 326° Northwest 449 517 30,700 1,200 Climbing Houston Center
10:39AM 28.8628 -100.3875 326° Northwest 450 518 32,000 1,020 Climbing Houston Center
10:40AM 28.9706 -100.4697 326° Northwest 461 531 32,900 1,080 Climbing Houston Center
10:41AM 29.1025 -100.5722 326° Northwest 472 543 34,300 1,140 Climbing Houston Center
10:42AM 29.2125 -100.6578 326° Northwest 474 545 35,300 960 Climbing Houston Center
10:43AM 29.3247 -100.7444 326° Northwest 479 551 36,300 960 Climbing Houston Center
10:44AM 29.4222 -100.8544 316° Northwest 485 558 37,400 960 Climbing Houston Center
10:45AM 29.5122 -100.9758 310° West 491 565 38,300 960 Climbing Houston Center
10:46AM 29.6011 -101.0975 310° West 496 571 39,400 1,080 Climbing Houston Center
10:47AM 29.7092 -101.2433 310° West 496 571 40,600 1,020 Climbing Houston Center
10:48AM 29.7969 -101.3636 310° West 495 570 41,600 960 Climbing Houston Center
10:49AM 29.8847 -101.4839 310° West 494 568 42,600 660 Climbing Houston Center
10:51AM 29.9708 -101.6036 310° West 487 560 43,000 180 Climbing Houston Center
10:52AM 30.0600 -101.7250 310° West 492 566 43,000  Level Houston Center
10:53AM 30.1483 -101.8475 310° West 494 568 43,000  Level Houston Center
10:54AM 30.2417 -101.9769 310° West 494 568 43,000  Level Houston Center
10:55AM 30.3303 -102.0992 310° West 495 570 43,000  Level Houston Center
10:57AM 30.5053 -102.3469 309° West 494 568 43,000  Level Fort Worth Center
10:58AM 30.6111 -102.4925 310° West 494 568 43,000  Level Houston Center
10:59AM 30.6981 -102.6172 309° West 493 567 43,000  Level Albuquerque Center
11:00AM 30.7858 -102.7411 310° West 493 567 43,000  Level Albuquerque Center
11:01AM 30.8725 -102.8647 309° West 490 564 43,000  Level Albuquerque Center
11:02AM 30.9719 -102.9747 317° Northwest 492 566 43,000  Level Albuquerque Center
11:03AM 31.1050 -103.0231 343° North 489 563 43,000  Level Albuquerque Center
11:04AM 31.2125 -103.0528 347° North 492 566 43,000  Level Albuquerque Center
11:05AM 31.3744 -103.0997 346° North 493 567 43,000  Level Albuquerque Center
11:06AM 31.5083 -103.1400 346° North 493 567 43,000  Level Albuquerque Center
11:07AM 31.6433 -103.1786 346° North 493 567 43,000  Level Albuquerque Center
11:08AM 31.7792 -103.2183 346° North 494 568 43,000  Level Albuquerque Center
11:09AM 31.9114 -103.2789 339° North 507 583 43,000  Level Albuquerque Center
11:10AM 32.0203 -103.3778 322° Northwest 501 577 43,000 60 Level Albuquerque Center
11:11AM 32.1278 -103.4781 322° Northwest 495 570 43,200 360 Climbing Albuquerque Center
11:12AM 32.2561 -103.5986 322° Northwest 493 567 43,800 480 Climbing Fort Worth Center
11:13AM 32.3614 -103.6967 322° Northwest 485 558 44,300 480 Climbing Albuquerque Center
11:14AM 32.4847 -103.8122 322° Northwest 474 545 44,900 300 Climbing Fort Worth Center
11:15AM 32.5650 -103.8894 321° Northwest 469 540 45,000  Climbing Albuquerque Center
11:16AM 32.6675 -103.9856 322° Northwest 468 539 45,000  Level Albuquerque Center
11:17AM 32.7692 -104.0833 321° Northwest 469 540 45,000  Level Albuquerque Center
11:18AM 32.8914 -104.1992 321° Northwest 469 540 45,000  Level Albuquerque Center
11:19AM 32.9958 -104.2961 322° Northwest 472 543 45,000  Level Albuquerque Center
11:20AM 33.0950 -104.3936 321° Northwest 468 539 45,000  Level Albuquerque Center
11:21AM 33.1978 -104.4917 321° Northwest 468 539 45,000  Level Albuquerque Center
11:22AM 33.2992 -104.5847 323° Northwest 470 541 45,000  Level Albuquerque Center
11:23AM 33.4503 -104.6456 341° North 477 549 45,000  Level Albuquerque Center
11:24AM 33.5842 -104.6792 348° North 479 551 45,000  Level Albuquerque Center
11:27AM 33.8486 -104.7433 349° North 479 551 45,000  Level Albuquerque Center
11:28AM 33.9797 -104.7700 350° North 478 550 45,000  Level Albuquerque Center
11:29AM 34.1125 -104.8044 348° North 478 550 45,000  Level Albuquerque Center
11:30AM 34.2447 -104.8342 349° North 478 550 45,000  Level Albuquerque Center
11:31AM 34.3981 -104.8711 349° North 478 550 45,000  Level Albuquerque Center
11:32AM 34.5311 -104.9017 349° North 478 550 45,000  Level Albuquerque Center
11:33AM 34.6631 -104.9336 349° North 478 550 45,000  Level Albuquerque Center
11:34AM 34.6454 -104.9148 349° North  Level FlightAware Approximate
11:34AM 34.7939 -104.9653 349° North 477 549 45,000  Level Albuquerque Center
11:35AM 34.7641 -104.9433 349° North  Level FlightAware Approximate
11:35AM 34.9264 -104.9967 349° North 477 549 45,000  Level Albuquerque Center
11:36AM 34.8829 -104.9718 349° North  Level FlightAware Approximate
11:36AM 35.0572 -105.0283 349° North 476 548 45,000  Level Albuquerque Center
11:37AM 35.1897 -105.0561 350° North 476 548 45,000  Level Albuquerque Center
11:38AM 35.3228 -105.0786 352° North 476 548 45,000  Level Albuquerque Center
11:39AM 35.4786 -105.1056 352° North 476 548 45,000  Level Albuquerque Center
11:40AM 35.6133 -105.1289 352° North 477 549 45,000  Level Albuquerque Center
11:41AM 35.7367 -105.1872 339° North 475 547 45,000  Level Albuquerque Center
11:42AM 35.8556 -105.2639 332° Northwest 475 547 45,000  Level Albuquerque Center
11:43AM 35.9708 -105.3417 331° Northwest 472 543 45,000  Level Albuquerque Center
11:44AM 36.0892 -105.4186 332° Northwest 472 543 45,000  Level Albuquerque Center
11:45AM 36.2069 -105.4964 332° Northwest 472 543 45,000  Level Albuquerque Center
11:46AM 36.3289 -105.5783 332° Northwest 479 551 45,000  Level Albuquerque Center
11:47AM 36.4464 -105.6569 332° Northwest 479 551 45,000  Level Albuquerque Center
11:48AM 36.5758 -105.6831 351° North 482 555 45,000  Level Albuquerque Center
11:49AM 36.7047 -105.6503 12° North 490 564 45,000  Level Denver Center
11:50AM 36.8408 -105.6167 11° North 495 570 45,000  Level Denver Center
11:51AM 37.0006 -105.5742 12° North 494 568 45,000  Level Denver Center
11:52AM 37.1353 -105.5400 11° North 493 567 45,000  Level Denver Center
11:53AM 37.2706 -105.5047 12° North 494 568 45,000  Level Denver Center
11:54AM 37.4008 -105.4697 12° North 489 563 45,000  Level Denver Center
11:55AM 37.5319 -105.4364 11° North 496 571 45,000  Level Denver Center
11:56AM 37.6769 -105.3983 12° North 498 573 45,000 -60 Level Denver Center
11:57AM 37.8403 -105.3556 12° North 498 573 44,900 -540 Descending Denver Center
11:58AM 37.9772 -105.3211 11° North 498 573 43,900 -960 Descending Denver Center
11:59AM 38.1139 -105.2847 12° North 498 573 43,000 -480 Descending Denver Center
12:01PM 38.2511 -105.2481 12° North 498 573 43,000  Level Denver Center
12:02PM 38.3817 -105.2144 11° North 505 581 43,000 -180 Level Denver Center
12:03PM 38.5486 -105.1694 12° North 507 583 42,700 -780 Descending Denver Center
12:04PM 38.6906 -105.1322 12° North 514 592 41,500 -1,200 Descending Denver Center
12:05PM 38.8344 -105.0947 11° North 523 602 40,300 -1,800 Descending Denver Center
12:06PM 38.9739 -105.0778 North 504 580 37,900 -2,700 Descending Denver Center
12:07PM 39.1078 -105.0711 North 486 559 34,800 -1,920 Descending Denver Center
12:08PM 39.2406 -105.0483 North 485 558 34,000 -420 Descending Denver Center
12:09PM 39.4072 -104.9908 15° North 510 587 34,000 -120 Level Denver Center
12:10PM 39.5556 -104.9908 360° North 530 610 33,800 -1,380 Descending Denver Center
12:11PM 39.6542 -105.1192 315° West 511 588 31,200 -2,520 Descending Denver Center
12:12PM 39.6992 -105.2900 289° West 505 581 28,600 -2,040 Descending Denver Center
12:13PM 39.7444 -105.4583 289° West 500 575 27,000 -1,200 Descending Denver Center
12:14PM 39.7867 -105.6239 288° West 488 562 26,200 -1,020 Descending Denver Center
12:15PM 39.8364 -105.8150 289° West 471 542 25,000 -960 Descending Denver Center
12:16PM 39.8781 -105.9711 289° West 460 529 24,300 -2,160 Descending Denver Center
12:17PM 39.9178 -106.1197 289° West 440 506 20,600 -3,420 Descending Denver Center
12:18PM 39.9556 -106.2642 289° West 422 486 17,300 -3,240 Descending Denver Center
12:19PM 39.9936 -106.4044 290° West 418 481 14,000 -1,620 Descending Denver Center
12:20PM 39.9547 -106.4994 242° Southwest 355 409 14,000  Level Denver Center
12:21PM 39.8842 -106.4939 177° South 294 338 14,000 -180 Level Denver Center
12:22PM 39.8153 -106.5225 198° South 269 310 13,700 -540 Descending Denver Center
12:23PM 39.7422 -106.5525 198° South 242 278 12,900 -540 Descending Denver Center
12:24PM 39.6956 -106.5814 205° Southwest 207 238 12,600 -540 Descending Denver Center
12:25PM 39.6831 -106.6461 256° West 192 221 11,800 -1,080 Descending Denver Center
12:26PM 39.6728 -106.7056 257° West 174 200 10,400 -1,260 Descending Denver Center
12:27PM 39.6639 -106.7583 258° West 157 181 9,300 -1,200 Descending Denver Center
12:28PM 39.6536 -106.8256 259° West 156 180 8,000 -1,140 Descending Denver Center
12:30PM 39.6461 -106.8797 260° West 156 180 7,000 -1,020 Descending Denver Center